sensor_id;sensor_type;location;lat;lon;timestamp;P1;durP1;ratioP1;P2;durP2;ratioP2
26277;SDS011;14000;52.056;8.510;2022-10-31T00:01:15;28.43;;;14.10;;
26277;SDS011;14000;52.056;8.510;2022-10-31T00:03:43;30.17;;;16.07;;
26277;SDS011;14000;52.056;8.510;2022-10-31T00:06:09;29.80;;;15.00;;
26277;SDS011;14000;52.056;8.510;2022-10-31T00:08:34;34.50;;;15.47;;
26277;SDS011;14000;52.056;8.510;2022-10-31T00:11:00;29.83;;;15.70;;
26277;SDS011;14000;52.056;8.510;2022-10-31T00:13:26;26.07;;;15.13;;
26277;SDS011;14000;52.056;8.510;2022-10-31T00:15:51;30.90;;;14.43;;
26277;SDS011;14000;52.056;8.510;2022-10-31T00:18:17;30.47;;;15.23;;
26277;SDS011;14000;52.056;8.510;2022-10-31T00:20:43;28.77;;;15.43;;
26277;SDS011;14000;52.056;8.510;2022-10-31T00:23:08;34.03;;;17.53;;
26277;SDS011;14000;52.056;8.510;2022-10-31T00:25:36;27.33;;;15.23;;
26277;SDS011;14000;52.056;8.510;2022-10-31T00:28:04;29.73;;;15.23;;
26277;SDS011;14000;52.056;8.510;2022-10-31T00:30:31;29.03;;;14.60;;
26277;SDS011;14000;52.056;8.510;2022-10-31T00:32:57;29.17;;;14.97;;
26277;SDS011;14000;52.056;8.510;2022-10-31T00:35:23;27.07;;;14.80;;
26277;SDS011;14000;52.056;8.510;2022-10-31T00:37:49;31.03;;;16.80;;
26277;SDS011;14000;52.056;8.510;2022-10-31T00:40:15;32.10;;;15.97;;
26277;SDS011;14000;52.056;8.510;2022-10-31T00:42:40;32.67;;;15.60;;
26277;SDS011;14000;52.056;8.510;2022-10-31T00:45:07;30.90;;;15.13;;
26277;SDS011;14000;52.056;8.510;2022-10-31T00:47:34;29.80;;;16.10;;
26277;SDS011;14000;52.056;8.510;2022-10-31T00:50:00;33.70;;;17.83;;
26277;SDS011;14000;52.056;8.510;2022-10-31T00:52:25;28.97;;;14.47;;
26277;SDS011;14000;52.056;8.510;2022-10-31T00:54:51;28.50;;;13.97;;
26277;SDS011;14000;52.056;8.510;2022-10-31T00:57:16;34.27;;;17.33;;
26277;SDS011;14000;52.056;8.510;2022-10-31T00:59:42;33.10;;;16.33;;
26277;SDS011;14000;52.056;8.510;2022-10-31T01:02:07;26.37;;;14.97;;
26277;SDS011;14000;52.056;8.510;2022-10-31T01:04:33;30.63;;;16.43;;
26277;SDS011;14000;52.056;8.510;2022-10-31T01:06:59;36.93;;;19.20;;
26277;SDS011;14000;52.056;8.510;2022-10-31T01:09:24;29.37;;;16.23;;
26277;SDS011;14000;52.056;8.510;2022-10-31T01:11:50;31.50;;;17.37;;
26277;SDS011;14000;52.056;8.510;2022-10-31T01:14:15;32.60;;;16.37;;
26277;SDS011;14000;52.056;8.510;2022-10-31T01:16:41;33.67;;;16.30;;
26277;SDS011;14000;52.056;8.510;2022-10-31T01:19:07;37.50;;;18.63;;
26277;SDS011;14000;52.056;8.510;2022-10-31T01:21:32;31.20;;;17.07;;
26277;SDS011;14000;52.056;8.510;2022-10-31T01:23:58;36.03;;;19.03;;
26277;SDS011;14000;52.056;8.510;2022-10-31T01:26:24;39.27;;;18.33;;
26277;SDS011;14000;52.056;8.510;2022-10-31T01:28:59;34.40;;;16.33;;
26277;SDS011;14000;52.056;8.510;2022-10-31T01:31:30;34.53;;;19.33;;
26277;SDS011;14000;52.056;8.510;2022-10-31T01:34:01;32.63;;;19.27;;
26277;SDS011;14000;52.056;8.510;2022-10-31T01:36:28;32.53;;;17.27;;
26277;SDS011;14000;52.056;8.510;2022-10-31T01:38:57;35.63;;;18.23;;
26277;SDS011;14000;52.056;8.510;2022-10-31T01:41:27;37.00;;;17.47;;
26277;SDS011;14000;52.056;8.510;2022-10-31T01:44:50;35.03;;;20.37;;
26277;SDS011;14000;52.056;8.510;2022-10-31T01:49:24;39.80;;;20.00;;
26277;SDS011;14000;52.056;8.510;2022-10-31T01:52:03;33.10;;;17.30;;
26277;SDS011;14000;52.056;8.510;2022-10-31T01:54:37;39.80;;;18.13;;
26277;SDS011;14000;52.056;8.510;2022-10-31T01:57:05;33.40;;;17.63;;
26277;SDS011;14000;52.056;8.510;2022-10-31T01:59:36;36.43;;;17.30;;
26277;SDS011;14000;52.056;8.510;2022-10-31T02:02:07;33.73;;;18.23;;
26277;SDS011;14000;52.056;8.510;2022-10-31T02:04:33;36.17;;;16.70;;
26277;SDS011;14000;52.056;8.510;2022-10-31T02:07:10;36.73;;;18.90;;
26277;SDS011;14000;52.056;8.510;2022-10-31T02:09:57;34.87;;;18.00;;
26277;SDS011;14000;52.056;8.510;2022-10-31T02:12:24;37.57;;;19.13;;
26277;SDS011;14000;52.056;8.510;2022-10-31T02:14:50;32.60;;;17.97;;
26277;SDS011;14000;52.056;8.510;2022-10-31T02:17:15;34.83;;;17.63;;
26277;SDS011;14000;52.056;8.510;2022-10-31T02:31:27;29.23;;;17.47;;
26277;SDS011;14000;52.056;8.510;2022-10-31T02:37:02;34.63;;;17.83;;
26277;SDS011;14000;52.056;8.510;2022-10-31T02:42:26;33.40;;;18.70;;
26277;SDS011;14000;52.056;8.510;2022-10-31T02:45:30;39.23;;;21.63;;
26277;SDS011;14000;52.056;8.510;2022-10-31T02:48:21;36.13;;;18.20;;
26277;SDS011;14000;52.056;8.510;2022-10-31T02:51:00;32.17;;;18.77;;
26277;SDS011;14000;52.056;8.510;2022-10-31T02:53:31;37.40;;;18.90;;
26277;SDS011;14000;52.056;8.510;2022-10-31T02:56:02;34.77;;;20.30;;
26277;SDS011;14000;52.056;8.510;2022-10-31T02:58:34;34.63;;;19.07;;
26277;SDS011;14000;52.056;8.510;2022-10-31T03:01:07;32.47;;;18.00;;
26277;SDS011;14000;52.056;8.510;2022-10-31T03:03:57;38.47;;;20.00;;
26277;SDS011;14000;52.056;8.510;2022-10-31T03:09:12;44.03;;;23.03;;
26277;SDS011;14000;52.056;8.510;2022-10-31T03:11:45;39.20;;;20.70;;
26277;SDS011;14000;52.056;8.510;2022-10-31T03:14:24;48.77;;;25.10;;
26277;SDS011;14000;52.056;8.510;2022-10-31T03:16:59;39.67;;;22.43;;
26277;SDS011;14000;52.056;8.510;2022-10-31T03:19:31;47.60;;;25.63;;
26277;SDS011;14000;52.056;8.510;2022-10-31T03:24:41;39.73;;;22.73;;
26277;SDS011;14000;52.056;8.510;2022-10-31T03:27:09;39.23;;;20.43;;
26277;SDS011;14000;52.056;8.510;2022-10-31T03:29:37;39.53;;;21.00;;
26277;SDS011;14000;52.056;8.510;2022-10-31T03:32:07;49.53;;;24.77;;
26277;SDS011;14000;52.056;8.510;2022-10-31T03:34:40;41.20;;;22.93;;
26277;SDS011;14000;52.056;8.510;2022-10-31T03:37:08;44.10;;;23.17;;
26277;SDS011;14000;52.056;8.510;2022-10-31T03:39:36;41.30;;;22.30;;
26277;SDS011;14000;52.056;8.510;2022-10-31T03:42:05;36.40;;;20.90;;
26277;SDS011;14000;52.056;8.510;2022-10-31T03:44:35;40.10;;;21.30;;
26277;SDS011;14000;52.056;8.510;2022-10-31T03:47:05;37.73;;;21.40;;
26277;SDS011;14000;52.056;8.510;2022-10-31T03:49:31;39.03;;;20.47;;
26277;SDS011;14000;52.056;8.510;2022-10-31T03:52:01;36.70;;;21.40;;
26277;SDS011;14000;52.056;8.510;2022-10-31T03:54:46;38.50;;;19.93;;
26277;SDS011;14000;52.056;8.510;2022-10-31T03:57:26;34.83;;;18.83;;
26277;SDS011;14000;52.056;8.510;2022-10-31T04:00:04;41.33;;;21.80;;
26277;SDS011;14000;52.056;8.510;2022-10-31T04:02:35;37.33;;;19.87;;
26277;SDS011;14000;52.056;8.510;2022-10-31T04:05:05;41.10;;;20.17;;
26277;SDS011;14000;52.056;8.510;2022-10-31T04:07:34;37.47;;;20.70;;
26277;SDS011;14000;52.056;8.510;2022-10-31T04:10:07;42.23;;;23.07;;
26277;SDS011;14000;52.056;8.510;2022-10-31T04:12:36;38.50;;;21.53;;
26277;SDS011;14000;52.056;8.510;2022-10-31T04:15:04;38.13;;;20.53;;
26277;SDS011;14000;52.056;8.510;2022-10-31T04:17:31;43.60;;;22.13;;
26277;SDS011;14000;52.056;8.510;2022-10-31T04:20:01;32.10;;;17.90;;
26277;SDS011;14000;52.056;8.510;2022-10-31T04:22:27;34.20;;;20.63;;
26277;SDS011;14000;52.056;8.510;2022-10-31T04:24:52;38.77;;;19.87;;
26277;SDS011;14000;52.056;8.510;2022-10-31T04:27:18;38.67;;;21.10;;
26277;SDS011;14000;52.056;8.510;2022-10-31T04:29:43;42.30;;;23.23;;
26277;SDS011;14000;52.056;8.510;2022-10-31T04:32:09;43.93;;;23.20;;
26277;SDS011;14000;52.056;8.510;2022-10-31T04:34:35;40.43;;;22.17;;
26277;SDS011;14000;52.056;8.510;2022-10-31T04:37:00;41.77;;;21.20;;
26277;SDS011;14000;52.056;8.510;2022-10-31T04:39:26;31.30;;;19.30;;
26277;SDS011;14000;52.056;8.510;2022-10-31T04:41:51;36.60;;;20.13;;
26277;SDS011;14000;52.056;8.510;2022-10-31T04:44:17;36.73;;;21.13;;
26277;SDS011;14000;52.056;8.510;2022-10-31T04:46:43;41.23;;;22.57;;
26277;SDS011;14000;52.056;8.510;2022-10-31T04:49:08;40.17;;;21.77;;
26277;SDS011;14000;52.056;8.510;2022-10-31T04:51:34;35.80;;;20.40;;
26277;SDS011;14000;52.056;8.510;2022-10-31T04:53:59;36.67;;;20.63;;
26277;SDS011;14000;52.056;8.510;2022-10-31T04:56:25;37.33;;;20.23;;
26277;SDS011;14000;52.056;8.510;2022-10-31T04:58:51;36.47;;;19.27;;
26277;SDS011;14000;52.056;8.510;2022-10-31T05:01:16;36.57;;;18.67;;
26277;SDS011;14000;52.056;8.510;2022-10-31T05:03:42;34.17;;;19.50;;
26277;SDS011;14000;52.056;8.510;2022-10-31T05:06:07;37.10;;;19.30;;
26277;SDS011;14000;52.056;8.510;2022-10-31T05:08:33;42.33;;;21.63;;
26277;SDS011;14000;52.056;8.510;2022-10-31T05:10:59;36.47;;;20.47;;
26277;SDS011;14000;52.056;8.510;2022-10-31T05:13:26;43.73;;;24.17;;
26277;SDS011;14000;52.056;8.510;2022-10-31T05:15:52;40.43;;;20.00;;
26277;SDS011;14000;52.056;8.510;2022-10-31T05:18:18;36.87;;;19.87;;
26277;SDS011;14000;52.056;8.510;2022-10-31T05:20:43;35.23;;;20.07;;
26277;SDS011;14000;52.056;8.510;2022-10-31T05:23:09;35.03;;;19.77;;
26277;SDS011;14000;52.056;8.510;2022-10-31T05:25:34;37.37;;;20.00;;
26277;SDS011;14000;52.056;8.510;2022-10-31T05:28:00;38.03;;;19.50;;
26277;SDS011;14000;52.056;8.510;2022-10-31T05:30:27;36.50;;;19.20;;
26277;SDS011;14000;52.056;8.510;2022-10-31T05:32:54;33.97;;;19.00;;
26277;SDS011;14000;52.056;8.510;2022-10-31T05:35:31;39.63;;;19.97;;
26277;SDS011;14000;52.056;8.510;2022-10-31T05:37:57;35.27;;;19.30;;
26277;SDS011;14000;52.056;8.510;2022-10-31T05:40:23;37.37;;;19.10;;
26277;SDS011;14000;52.056;8.510;2022-10-31T05:42:50;35.20;;;19.80;;
26277;SDS011;14000;52.056;8.510;2022-10-31T05:45:17;39.97;;;19.63;;
26277;SDS011;14000;52.056;8.510;2022-10-31T05:47:53;28.83;;;16.93;;
26277;SDS011;14000;52.056;8.510;2022-10-31T05:50:21;29.90;;;16.97;;
26277;SDS011;14000;52.056;8.510;2022-10-31T05:52:53;41.83;;;18.00;;
26277;SDS011;14000;52.056;8.510;2022-10-31T05:55:26;33.63;;;17.40;;
26277;SDS011;14000;52.056;8.510;2022-10-31T05:57:53;33.83;;;18.17;;
26277;SDS011;14000;52.056;8.510;2022-10-31T06:00:19;28.87;;;16.07;;
26277;SDS011;14000;52.056;8.510;2022-10-31T06:02:45;29.77;;;16.57;;
26277;SDS011;14000;52.056;8.510;2022-10-31T06:05:11;34.17;;;16.43;;
26277;SDS011;14000;52.056;8.510;2022-10-31T06:07:37;30.83;;;16.07;;
26277;SDS011;14000;52.056;8.510;2022-10-31T06:10:04;32.13;;;15.77;;
26277;SDS011;14000;52.056;8.510;2022-10-31T06:12:30;36.70;;;17.97;;
26277;SDS011;14000;52.056;8.510;2022-10-31T06:14:56;31.73;;;16.87;;
26277;SDS011;14000;52.056;8.510;2022-10-31T06:17:22;35.63;;;18.53;;
26277;SDS011;14000;52.056;8.510;2022-10-31T06:19:48;36.30;;;17.93;;
26277;SDS011;14000;52.056;8.510;2022-10-31T06:22:13;30.23;;;17.23;;
26277;SDS011;14000;52.056;8.510;2022-10-31T06:24:39;34.47;;;18.93;;
26277;SDS011;14000;52.056;8.510;2022-10-31T06:27:05;33.70;;;18.13;;
26277;SDS011;14000;52.056;8.510;2022-10-31T06:29:30;34.80;;;19.40;;
26277;SDS011;14000;52.056;8.510;2022-10-31T06:31:56;36.33;;;19.23;;
26277;SDS011;14000;52.056;8.510;2022-10-31T06:34:22;41.13;;;20.47;;
26277;SDS011;14000;52.056;8.510;2022-10-31T06:36:47;39.33;;;20.67;;
26277;SDS011;14000;52.056;8.510;2022-10-31T06:39:14;36.60;;;19.67;;
26277;SDS011;14000;52.056;8.510;2022-10-31T06:41:39;36.83;;;19.60;;
26277;SDS011;14000;52.056;8.510;2022-10-31T06:44:06;35.10;;;20.70;;
26277;SDS011;14000;52.056;8.510;2022-10-31T06:46:32;43.53;;;21.17;;
26277;SDS011;14000;52.056;8.510;2022-10-31T06:48:57;42.50;;;21.47;;
26277;SDS011;14000;52.056;8.510;2022-10-31T06:51:23;36.63;;;20.83;;
26277;SDS011;14000;52.056;8.510;2022-10-31T06:53:48;37.97;;;20.30;;
26277;SDS011;14000;52.056;8.510;2022-10-31T06:56:14;38.33;;;20.23;;
26277;SDS011;14000;52.056;8.510;2022-10-31T06:58:40;41.50;;;20.70;;
26277;SDS011;14000;52.056;8.510;2022-10-31T07:01:05;37.93;;;20.00;;
26277;SDS011;14000;52.056;8.510;2022-10-31T07:03:31;45.50;;;20.90;;
26277;SDS011;14000;52.056;8.510;2022-10-31T07:05:57;43.07;;;21.67;;
26277;SDS011;14000;52.056;8.510;2022-10-31T07:08:23;43.43;;;22.07;;
26277;SDS011;14000;52.056;8.510;2022-10-31T07:10:53;40.30;;;22.63;;
26277;SDS011;14000;52.056;8.510;2022-10-31T07:13:20;41.50;;;22.67;;
26277;SDS011;14000;52.056;8.510;2022-10-31T07:15:50;35.20;;;21.73;;
26277;SDS011;14000;52.056;8.510;2022-10-31T07:18:17;39.93;;;20.30;;
26277;SDS011;14000;52.056;8.510;2022-10-31T07:20:43;39.60;;;22.97;;
26277;SDS011;14000;52.056;8.510;2022-10-31T07:23:09;42.50;;;25.77;;
26277;SDS011;14000;52.056;8.510;2022-10-31T07:25:36;44.53;;;26.43;;
26277;SDS011;14000;52.056;8.510;2022-10-31T07:28:05;51.23;;;28.17;;
26277;SDS011;14000;52.056;8.510;2022-10-31T07:30:31;43.27;;;24.37;;
26277;SDS011;14000;52.056;8.510;2022-10-31T07:32:57;41.67;;;22.57;;
26277;SDS011;14000;52.056;8.510;2022-10-31T07:35:24;39.40;;;22.70;;
26277;SDS011;14000;52.056;8.510;2022-10-31T07:37:51;43.30;;;22.30;;
26277;SDS011;14000;52.056;8.510;2022-10-31T07:40:17;37.43;;;22.17;;
26277;SDS011;14000;52.056;8.510;2022-10-31T07:42:45;35.67;;;20.43;;
26277;SDS011;14000;52.056;8.510;2022-10-31T07:45:13;37.30;;;20.00;;
26277;SDS011;14000;52.056;8.510;2022-10-31T07:47:41;36.57;;;20.83;;
26277;SDS011;14000;52.056;8.510;2022-10-31T07:50:10;39.10;;;19.00;;
26277;SDS011;14000;52.056;8.510;2022-10-31T07:52:46;36.13;;;18.47;;
26277;SDS011;14000;52.056;8.510;2022-10-31T07:55:12;39.67;;;21.20;;
26277;SDS011;14000;52.056;8.510;2022-10-31T07:57:38;37.40;;;21.17;;
26277;SDS011;14000;52.056;8.510;2022-10-31T08:00:04;39.77;;;22.40;;
26277;SDS011;14000;52.056;8.510;2022-10-31T08:02:31;43.67;;;24.43;;
26277;SDS011;14000;52.056;8.510;2022-10-31T08:04:57;53.47;;;26.57;;
26277;SDS011;14000;52.056;8.510;2022-10-31T08:07:24;55.77;;;27.53;;
26277;SDS011;14000;52.056;8.510;2022-10-31T08:09:50;56.77;;;28.43;;
26277;SDS011;14000;52.056;8.510;2022-10-31T08:12:15;41.50;;;22.23;;
26277;SDS011;14000;52.056;8.510;2022-10-31T08:14:41;43.13;;;24.00;;
26277;SDS011;14000;52.056;8.510;2022-10-31T08:17:07;54.10;;;27.33;;
26277;SDS011;14000;52.056;8.510;2022-10-31T08:19:32;47.60;;;27.30;;
26277;SDS011;14000;52.056;8.510;2022-10-31T08:21:58;52.23;;;28.53;;
26277;SDS011;14000;52.056;8.510;2022-10-31T08:24:23;46.60;;;24.60;;
26277;SDS011;14000;52.056;8.510;2022-10-31T08:26:49;37.77;;;21.90;;
26277;SDS011;14000;52.056;8.510;2022-10-31T08:29:15;48.00;;;24.97;;
26277;SDS011;14000;52.056;8.510;2022-10-31T08:31:41;39.10;;;22.33;;
26277;SDS011;14000;52.056;8.510;2022-10-31T08:34:07;38.77;;;20.90;;
26277;SDS011;14000;52.056;8.510;2022-10-31T08:36:33;37.90;;;21.07;;
26277;SDS011;14000;52.056;8.510;2022-10-31T08:38:59;46.10;;;24.87;;
26277;SDS011;14000;52.056;8.510;2022-10-31T08:41:25;39.40;;;22.80;;
26277;SDS011;14000;52.056;8.510;2022-10-31T08:43:50;44.37;;;23.27;;
26277;SDS011;14000;52.056;8.510;2022-10-31T08:46:16;51.90;;;27.87;;
26277;SDS011;14000;52.056;8.510;2022-10-31T08:48:42;39.70;;;23.93;;
26277;SDS011;14000;52.056;8.510;2022-10-31T08:51:08;39.77;;;21.57;;
26277;SDS011;14000;52.056;8.510;2022-10-31T08:53:35;43.40;;;25.37;;
26277;SDS011;14000;52.056;8.510;2022-10-31T08:56:01;45.37;;;26.40;;
26277;SDS011;14000;52.056;8.510;2022-10-31T08:58:26;38.40;;;20.70;;
26277;SDS011;14000;52.056;8.510;2022-10-31T09:00:53;38.67;;;21.93;;
26277;SDS011;14000;52.056;8.510;2022-10-31T09:03:23;39.03;;;21.87;;
26277;SDS011;14000;52.056;8.510;2022-10-31T09:05:50;47.20;;;25.17;;
26277;SDS011;14000;52.056;8.510;2022-10-31T09:08:19;39.77;;;20.13;;
26277;SDS011;14000;52.056;8.510;2022-10-31T09:10:45;54.07;;;27.47;;
26277;SDS011;14000;52.056;8.510;2022-10-31T09:13:20;52.83;;;27.90;;
26277;SDS011;14000;52.056;8.510;2022-10-31T09:15:47;42.27;;;23.23;;
26277;SDS011;14000;52.056;8.510;2022-10-31T09:18:14;38.90;;;21.20;;
26277;SDS011;14000;52.056;8.510;2022-10-31T09:20:41;44.07;;;24.27;;
26277;SDS011;14000;52.056;8.510;2022-10-31T09:23:09;50.80;;;26.27;;
26277;SDS011;14000;52.056;8.510;2022-10-31T09:25:40;46.13;;;24.10;;
26277;SDS011;14000;52.056;8.510;2022-10-31T09:28:07;47.83;;;25.70;;
26277;SDS011;14000;52.056;8.510;2022-10-31T09:30:35;43.23;;;23.67;;
26277;SDS011;14000;52.056;8.510;2022-10-31T09:33:03;41.33;;;23.63;;
26277;SDS011;14000;52.056;8.510;2022-10-31T09:35:34;40.03;;;22.73;;
26277;SDS011;14000;52.056;8.510;2022-10-31T09:38:01;55.07;;;28.67;;
26277;SDS011;14000;52.056;8.510;2022-10-31T09:48:29;44.00;;;24.87;;
26277;SDS011;14000;52.056;8.510;2022-10-31T09:51:07;45.83;;;23.00;;
26277;SDS011;14000;52.056;8.510;2022-10-31T09:56:14;43.93;;;22.83;;
26277;SDS011;14000;52.056;8.510;2022-10-31T09:58:44;37.53;;;22.33;;
26277;SDS011;14000;52.056;8.510;2022-10-31T10:01:20;40.70;;;21.30;;
26277;SDS011;14000;52.056;8.510;2022-10-31T10:04:01;46.13;;;23.33;;
26277;SDS011;14000;52.056;8.510;2022-10-31T10:06:41;44.83;;;23.17;;
26277;SDS011;14000;52.056;8.510;2022-10-31T10:09:11;39.73;;;20.53;;
26277;SDS011;14000;52.056;8.510;2022-10-31T10:14:37;55.47;;;27.03;;
26277;SDS011;14000;52.056;8.510;2022-10-31T10:17:24;51.00;;;26.40;;
26277;SDS011;14000;52.056;8.510;2022-10-31T10:25:24;44.93;;;24.53;;
26277;SDS011;14000;52.056;8.510;2022-10-31T10:30:35;46.23;;;24.87;;
26277;SDS011;14000;52.056;8.510;2022-10-31T10:33:28;39.63;;;20.10;;
26277;SDS011;14000;52.056;8.510;2022-10-31T10:36:18;46.93;;;26.80;;
26277;SDS011;14000;52.056;8.510;2022-10-31T10:38:58;46.03;;;26.83;;
26277;SDS011;14000;52.056;8.510;2022-10-31T10:41:47;54.23;;;28.70;;
26277;SDS011;14000;52.056;8.510;2022-10-31T10:44:32;44.57;;;24.83;;
26277;SDS011;14000;52.056;8.510;2022-10-31T10:47:16;44.20;;;26.13;;
26277;SDS011;14000;52.056;8.510;2022-10-31T10:50:01;51.70;;;29.03;;
26277;SDS011;14000;52.056;8.510;2022-10-31T10:52:44;56.47;;;28.70;;
26277;SDS011;14000;52.056;8.510;2022-10-31T10:55:32;55.17;;;28.30;;
26277;SDS011;14000;52.056;8.510;2022-10-31T10:58:03;53.30;;;28.10;;
26277;SDS011;14000;52.056;8.510;2022-10-31T11:00:32;49.03;;;26.47;;
26277;SDS011;14000;52.056;8.510;2022-10-31T11:03:03;49.83;;;27.87;;
26277;SDS011;14000;52.056;8.510;2022-10-31T11:08:29;50.93;;;26.20;;
26277;SDS011;14000;52.056;8.510;2022-10-31T11:11:01;48.57;;;25.07;;
26277;SDS011;14000;52.056;8.510;2022-10-31T11:13:33;41.60;;;23.33;;
26277;SDS011;14000;52.056;8.510;2022-10-31T11:16:09;45.37;;;21.60;;
26277;SDS011;14000;52.056;8.510;2022-10-31T11:18:42;44.03;;;22.33;;
26277;SDS011;14000;52.056;8.510;2022-10-31T11:24:04;29.10;;;15.13;;
26277;SDS011;14000;52.056;8.510;2022-10-31T11:26:40;30.30;;;14.03;;
26277;SDS011;14000;52.056;8.510;2022-10-31T11:29:14;27.70;;;15.00;;
26277;SDS011;14000;52.056;8.510;2022-10-31T11:31:41;31.00;;;17.30;;
26277;SDS011;14000;52.056;8.510;2022-10-31T11:34:14;28.70;;;16.03;;
26277;SDS011;14000;52.056;8.510;2022-10-31T11:36:52;27.97;;;13.67;;
26277;SDS011;14000;52.056;8.510;2022-10-31T11:39:21;23.23;;;12.77;;
26277;SDS011;14000;52.056;8.510;2022-10-31T11:41:49;31.90;;;14.53;;
26277;SDS011;14000;52.056;8.510;2022-10-31T11:46:54;31.37;;;17.00;;
26277;SDS011;14000;52.056;8.510;2022-10-31T11:49:42;29.80;;;16.53;;
26277;SDS011;14000;52.056;8.510;2022-10-31T11:52:25;34.57;;;16.50;;
26277;SDS011;14000;52.056;8.510;2022-10-31T11:57:44;34.93;;;15.60;;
26277;SDS011;14000;52.056;8.510;2022-10-31T12:00:22;35.90;;;16.67;;
26277;SDS011;14000;52.056;8.510;2022-10-31T12:02:48;33.67;;;16.50;;
26277;SDS011;14000;52.056;8.510;2022-10-31T12:05:18;31.13;;;14.67;;
26277;SDS011;14000;52.056;8.510;2022-10-31T12:07:48;34.83;;;15.53;;
26277;SDS011;14000;52.056;8.510;2022-10-31T12:10:14;32.03;;;16.37;;
26277;SDS011;14000;52.056;8.510;2022-10-31T12:18:17;36.73;;;17.40;;
26277;SDS011;14000;52.056;8.510;2022-10-31T12:21:09;36.97;;;16.70;;
26277;SDS011;14000;52.056;8.510;2022-10-31T12:24:14;36.60;;;16.60;;
26277;SDS011;14000;52.056;8.510;2022-10-31T12:33:02;34.37;;;16.13;;
26277;SDS011;14000;52.056;8.510;2022-10-31T12:38:37;31.10;;;16.17;;
26277;SDS011;14000;52.056;8.510;2022-10-31T12:41:36;36.33;;;17.23;;
26277;SDS011;14000;52.056;8.510;2022-10-31T12:44:27;36.27;;;16.67;;
26277;SDS011;14000;52.056;8.510;2022-10-31T12:58:10;32.97;;;15.10;;
26277;SDS011;14000;52.056;8.510;2022-10-31T13:01:02;27.30;;;14.60;;
26277;SDS011;14000;52.056;8.510;2022-10-31T13:04:21;31.67;;;15.73;;
26277;SDS011;14000;52.056;8.510;2022-10-31T13:06:31;32.97;;;15.37;;
26277;SDS011;14000;52.056;8.510;2022-10-31T13:09:02;31.33;;;15.10;;
26277;SDS011;14000;52.056;8.510;2022-10-31T13:11:32;31.30;;;14.33;;
26277;SDS011;14000;52.056;8.510;2022-10-31T13:16:50;26.47;;;12.97;;
26277;SDS011;14000;52.056;8.510;2022-10-31T13:19:18;23.53;;;12.20;;
26277;SDS011;14000;52.056;8.510;2022-10-31T13:24:54;30.07;;;12.30;;
26277;SDS011;14000;52.056;8.510;2022-10-31T13:30:22;27.03;;;12.93;;
26277;SDS011;14000;52.056;8.510;2022-10-31T13:35:24;28.33;;;13.10;;
26277;SDS011;14000;52.056;8.510;2022-10-31T13:38:23;27.10;;;12.63;;
26277;SDS011;14000;52.056;8.510;2022-10-31T13:40:52;24.27;;;11.13;;
26277;SDS011;14000;52.056;8.510;2022-10-31T13:46:21;28.10;;;12.97;;
26277;SDS011;14000;52.056;8.510;2022-10-31T13:48:49;28.03;;;12.77;;
26277;SDS011;14000;52.056;8.510;2022-10-31T13:51:23;25.47;;;12.40;;
26277;SDS011;14000;52.056;8.510;2022-10-31T13:58:56;19.67;;;10.33;;
26277;SDS011;14000;52.056;8.510;2022-10-31T14:01:34;27.70;;;11.40;;
26277;SDS011;14000;52.056;8.510;2022-10-31T14:06:38;26.67;;;11.57;;
26277;SDS011;14000;52.056;8.510;2022-10-31T14:09:33;25.20;;;11.10;;
26277;SDS011;14000;52.056;8.510;2022-10-31T14:12:10;23.97;;;10.27;;
26277;SDS011;14000;52.056;8.510;2022-10-31T14:15:02;21.63;;;10.40;;
26277;SDS011;14000;52.056;8.510;2022-10-31T14:20:40;26.00;;;10.77;;
26277;SDS011;14000;52.056;8.510;2022-10-31T14:23:11;19.87;;;8.73;;
26277;SDS011;14000;52.056;8.510;2022-10-31T14:25:36;25.63;;;9.70;;
26277;SDS011;14000;52.056;8.510;2022-10-31T14:28:03;18.83;;;8.43;;
26277;SDS011;14000;52.056;8.510;2022-10-31T14:30:57;18.63;;;9.53;;
26277;SDS011;14000;52.056;8.510;2022-10-31T14:33:25;23.13;;;10.47;;
26277;SDS011;14000;52.056;8.510;2022-10-31T14:38:40;26.73;;;9.53;;
26277;SDS011;14000;52.056;8.510;2022-10-31T14:47:01;18.27;;;9.10;;
26277;SDS011;14000;52.056;8.510;2022-10-31T14:49:35;22.20;;;10.07;;
26277;SDS011;14000;52.056;8.510;2022-10-31T14:52:20;20.30;;;8.67;;
26277;SDS011;14000;52.056;8.510;2022-10-31T14:54:49;18.73;;;9.17;;
26277;SDS011;14000;52.056;8.510;2022-10-31T15:00:17;22.10;;;10.10;;
26277;SDS011;14000;52.056;8.510;2022-10-31T15:05:52;22.70;;;9.47;;
26277;SDS011;14000;52.056;8.510;2022-10-31T15:08:27;20.00;;;8.50;;
26277;SDS011;14000;52.056;8.510;2022-10-31T15:10:56;24.67;;;9.57;;
26277;SDS011;14000;52.056;8.510;2022-10-31T15:13:22;25.37;;;9.90;;
26277;SDS011;14000;52.056;8.510;2022-10-31T15:15:52;18.20;;;7.87;;
26277;SDS011;14000;52.056;8.510;2022-10-31T15:18:23;16.57;;;7.87;;
26277;SDS011;14000;52.056;8.510;2022-10-31T15:20:52;21.00;;;9.40;;
26277;SDS011;14000;52.056;8.510;2022-10-31T15:23:24;24.33;;;9.67;;
26277;SDS011;14000;52.056;8.510;2022-10-31T15:25:57;20.67;;;9.27;;
26277;SDS011;14000;52.056;8.510;2022-10-31T15:28:27;21.97;;;10.10;;
26277;SDS011;14000;52.056;8.510;2022-10-31T15:30:56;19.03;;;8.07;;
26277;SDS011;14000;52.056;8.510;2022-10-31T15:33:25;20.20;;;9.40;;
26277;SDS011;14000;52.056;8.510;2022-10-31T15:35:57;22.13;;;9.37;;
26277;SDS011;14000;52.056;8.510;2022-10-31T15:38:24;18.40;;;8.00;;
26277;SDS011;14000;52.056;8.510;2022-10-31T15:40:52;18.87;;;8.60;;
26277;SDS011;14000;52.056;8.510;2022-10-31T15:43:23;18.80;;;8.20;;
26277;SDS011;14000;52.056;8.510;2022-10-31T15:45:49;19.23;;;9.30;;
26277;SDS011;14000;52.056;8.510;2022-10-31T15:48:18;21.03;;;9.63;;
26277;SDS011;14000;52.056;8.510;2022-10-31T15:50:49;20.00;;;9.13;;
26277;SDS011;14000;52.056;8.510;2022-10-31T15:55:57;20.83;;;9.50;;
26277;SDS011;14000;52.056;8.510;2022-10-31T15:58:25;20.20;;;9.00;;
26277;SDS011;14000;52.056;8.510;2022-10-31T16:00:57;18.60;;;8.80;;
26277;SDS011;14000;52.056;8.510;2022-10-31T16:03:28;29.87;;;9.90;;
26277;SDS011;14000;52.056;8.510;2022-10-31T16:05:56;19.17;;;8.83;;
26277;SDS011;14000;52.056;8.510;2022-10-31T16:08:25;21.37;;;10.00;;
26277;SDS011;14000;52.056;8.510;2022-10-31T16:13:32;17.87;;;8.97;;
26277;SDS011;14000;52.056;8.510;2022-10-31T16:16:00;21.10;;;8.73;;
26277;SDS011;14000;52.056;8.510;2022-10-31T16:18:28;19.27;;;9.17;;
26277;SDS011;14000;52.056;8.510;2022-10-31T16:21:00;17.23;;;8.67;;
26277;SDS011;14000;52.056;8.510;2022-10-31T16:23:26;23.70;;;10.80;;
26277;SDS011;14000;52.056;8.510;2022-10-31T16:25:52;19.50;;;8.57;;
26277;SDS011;14000;52.056;8.510;2022-10-31T16:28:20;25.20;;;10.10;;
26277;SDS011;14000;52.056;8.510;2022-10-31T16:30:49;21.57;;;10.17;;
26277;SDS011;14000;52.056;8.510;2022-10-31T16:35:58;22.07;;;9.73;;
26277;SDS011;14000;52.056;8.510;2022-10-31T16:38:24;16.93;;;8.97;;
26277;SDS011;14000;52.056;8.510;2022-10-31T16:40:50;19.77;;;9.00;;
26277;SDS011;14000;52.056;8.510;2022-10-31T16:43:17;19.40;;;8.87;;
26277;SDS011;14000;52.056;8.510;2022-10-31T16:45:46;17.37;;;7.80;;
26277;SDS011;14000;52.056;8.510;2022-10-31T16:48:14;15.20;;;8.47;;
26277;SDS011;14000;52.056;8.510;2022-10-31T16:50:42;19.33;;;10.80;;
26277;SDS011;14000;52.056;8.510;2022-10-31T16:53:10;21.90;;;10.13;;